Time;durP1;ratioP1;P1;durP2;ratioP2;P2;SDS_P1;SDS_P2;PMS_P1;PMS_P2;Temp;Humidity;BMP_temperature;BMP_pressure;BME280_temperature;BME280_humidity;BME280_pressure;Samples;Min_cycle;Max_cycle;Signal;HPM_P1;HPM_P2
2023/05/15 00:01:15;;;;;;;9.20;7.70;;;17.30;92.60;;;;;;5099504;28;20028;-77
2023/05/15 00:03:41;;;;;;;10.60;7.03;;;17.30;92.60;;;;;;5117060;28;20361;-78
2023/05/15 00:06:07;;;;;;;10.38;7.53;;;17.40;92.60;;;;;;5116993;28;20118;-77
2023/05/15 00:08:32;;;;;;;11.60;7.35;;;17.40;92.60;;;;;;5099272;28;20031;-77
2023/05/15 00:10:58;;;;;;;10.95;8.38;;;17.40;92.30;;;;;;5116936;28;20031;-77
2023/05/15 00:13:23;;;;;;;11.35;7.75;;;17.40;92.20;;;;;;5116603;28;20092;-78
2023/05/15 00:15:49;;;;;;;8.85;6.72;;;17.30;92.10;;;;;;5116773;28;20112;-78
2023/05/15 00:18:15;;;;;;;9.15;7.70;;;17.30;92.10;;;;;;5117061;28;20032;-77
2023/05/15 00:20:40;;;;;;;9.38;6.78;;;17.30;92.00;;;;;;5098488;28;20398;-77
2023/05/15 00:23:06;;;;;;;11.57;7.18;;;17.20;91.90;;;;;;5098374;28;20435;-77
2023/05/15 00:25:32;;;;;;;12.98;6.95;;;17.20;92.00;;;;;;5098372;28;20384;-77
2023/05/15 00:27:57;;;;;;;12.85;8.55;;;17.10;91.70;;;;;;5116613;28;20028;-77
2023/05/15 00:30:23;;;;;;;9.80;7.63;;;17.10;91.80;;;;;;5116681;28;20131;-77
2023/05/15 00:32:49;;;;;;;12.02;9.18;;;17.00;91.70;;;;;;5116257;28;20043;-77
2023/05/15 00:35:14;;;;;;;13.13;9.40;;;16.90;91.60;;;;;;5064236;28;20043;-78
2023/05/15 00:37:40;;;;;;;14.43;9.65;;;16.70;91.80;;;;;;5116695;28;20027;-78
2023/05/15 00:40:09;;;;;;;13.15;10.23;;;16.50;91.80;;;;;;5098201;28;20092;-78
2023/05/15 00:42:35;;;;;;;12.02;9.98;;;16.30;92.10;;;;;;5116226;28;20027;-78
2023/05/15 00:45:02;;;;;;;15.82;10.80;;;16.10;92.40;;;;;;5097796;28;20031;-78
2023/05/15 00:47:29;;;;;;;9.13;7.93;;;15.90;92.50;;;;;;5116220;28;20094;-78
2023/05/15 00:49:55;;;;;;;10.95;6.88;;;15.80;92.80;;;;;;5116158;28;20032;-78
2023/05/15 00:52:21;;;;;;;10.25;7.70;;;15.90;93.10;;;;;;5116061;28;20036;-77
2023/05/15 00:54:47;;;;;;;12.23;9.18;;;15.90;92.80;;;;;;5115974;28;20118;-77
2023/05/15 00:57:14;;;;;;;12.05;8.52;;;15.90;92.70;;;;;;5116052;28;20115;-77
2023/05/15 00:59:41;;;;;;;10.55;8.30;;;15.80;92.60;;;;;;5064616;28;20437;-77
2023/05/15 01:02:06;;;;;;;8.95;7.43;;;15.80;92.40;;;;;;5115733;28;20038;-77
2023/05/15 01:04:32;;;;;;;12.77;8.52;;;15.70;92.30;;;;;;5097501;28;20031;-77
2023/05/15 01:06:58;;;;;;;11.85;8.35;;;15.80;92.20;;;;;;5115889;28;20381;-77
2023/05/15 01:09:24;;;;;;;6.28;5.22;;;15.70;92.00;;;;;;5115798;28;20023;-77
2023/05/15 01:11:53;;;;;;;8.13;7.13;;;15.80;92.40;;;;;;5115679;28;20028;-77
2023/05/15 01:14:19;;;;;;;7.88;6.68;;;16.00;92.40;;;;;;5116190;28;20106;-77
2023/05/15 01:16:45;;;;;;;8.35;7.45;;;16.00;92.30;;;;;;5097306;28;20579;-77
2023/05/15 01:19:10;;;;;;;14.65;9.45;;;16.20;92.30;;;;;;5115883;28;20048;-77
2023/05/15 01:21:36;;;;;;;13.88;10.55;;;16.20;92.20;;;;;;5080338;28;20070;-77
2023/05/15 01:24:39;;;;;;;10.20;7.97;;;16.20;92.20;;;;;;5114693;28;20460;-77
2023/05/15 01:27:26;;;;;;;12.77;10.25;;;16.00;92.70;;;;;;5114221;28;20085;-77
2023/05/15 01:30:13;;;;;;;10.45;9.35;;;16.00;92.90;;;;;;5115133;28;20514;-77
2023/05/15 01:33:04;;;;;;;12.98;9.30;;;16.10;93.00;;;;;;5096964;28;20043;-78
2023/05/15 01:35:40;;;;;;;17.33;11.25;;;15.90;93.40;;;;;;5115860;28;20036;-77
2023/05/15 01:38:34;;;;;;;16.38;12.05;;;15.80;93.70;;;;;;5097575;28;20023;-78
2023/05/15 01:41:34;;;;;;;15.73;13.15;;;15.80;93.90;;;;;;5096924;28;20448;-77
2023/05/15 01:44:12;;;;;;;20.23;11.95;;;15.70;94.30;;;;;;5115398;28;20028;-77
2023/05/15 01:46:41;;;;;;;14.98;11.88;;;15.60;94.40;;;;;;5115664;28;20031;-77
2023/05/15 01:49:09;;;;;;;16.98;13.07;;;15.40;94.80;;;;;;5115032;28;20035;-77
2023/05/15 01:51:37;;;;;;;14.27;11.55;;;15.40;95.20;;;;;;5114931;28;20548;-77
2023/05/15 01:54:04;;;;;;;15.30;13.13;;;15.20;95.60;;;;;;5115127;28;20033;-76
2023/05/15 01:56:31;;;;;;;14.63;11.15;;;15.10;95.90;;;;;;5096621;28;20036;-77
2023/05/15 01:58:59;;;;;;;15.70;10.70;;;15.10;96.20;;;;;;5115075;28;20032;-77
2023/05/15 02:01:26;;;;;;;14.82;12.20;;;15.20;96.40;;;;;;5114700;28;20020;-77
2023/05/15 02:03:54;;;;;;;14.90;11.20;;;15.20;96.60;;;;;;5115222;28;20515;-76
2023/05/15 02:06:21;;;;;;;9.82;8.80;;;15.10;96.70;;;;;;5114647;28;20035;-76
2023/05/15 02:08:48;;;;;;;15.45;13.32;;;15.10;96.90;;;;;;5096269;28;20106;-76
2023/05/15 02:11:14;;;;;;;14.82;11.02;;;15.20;96.70;;;;;;5115122;28;20096;-76
2023/05/15 02:13:41;;;;;;;19.15;12.70;;;15.10;96.80;;;;;;5114579;28;20036;-76
2023/05/15 02:16:07;;;;;;;16.17;12.38;;;15.10;96.80;;;;;;5079441;28;20438;-77
2023/05/15 02:18:32;;;;;;;18.85;12.00;;;15.10;97.00;;;;;;5114435;28;20034;-77
2023/05/15 02:20:59;;;;;;;13.43;12.00;;;15.10;97.00;;;;;;5114205;28;20106;-77
2023/05/15 02:23:25;;;;;;;14.75;11.82;;;15.10;96.90;;;;;;5114361;28;20478;-77
2023/05/15 02:26:20;;;;;;;14.30;12.27;;;15.20;96.90;;;;;;5113159;28;20127;-77
2023/05/15 02:29:20;;;;;;;10.65;9.18;;;15.20;96.80;;;;;;5113346;28;20521;-77
2023/05/15 02:32:34;;;;;;;16.95;12.57;;;15.20;96.90;;;;;;5059752;28;20047;-77
2023/05/15 02:35:08;;;;;;;15.93;12.38;;;15.00;97.20;;;;;;5037014;28;20036;-77
2023/05/15 02:37:38;;;;;;;12.05;10.32;;;14.70;97.80;;;;;;5114010;28;20085;-77
2023/05/15 02:40:09;;;;;;;10.75;9.10;;;14.80;98.10;;;;;;5114299;28;20076;-77
2023/05/15 02:42:36;;;;;;;15.30;13.10;;;14.90;98.20;;;;;;5096968;28;20035;-77
2023/05/15 02:45:02;;;;;;;11.88;10.18;;;15.00;97.90;;;;;;5114440;28;20042;-77
2023/05/15 02:47:29;;;;;;;14.85;11.82;;;15.00;97.90;;;;;;5114121;28;20107;-77
2023/05/15 02:49:56;;;;;;;18.35;13.57;;;15.00;97.90;;;;;;5079341;28;20482;-77
2023/05/15 02:52:25;;;;;;;17.38;12.88;;;14.90;98.20;;;;;;5114374;28;20379;-77
2023/05/15 02:54:50;;;;;;;12.50;10.40;;;14.70;98.30;;;;;;5095888;28;20367;-77
2023/05/15 02:57:16;;;;;;;22.13;14.55;;;14.80;98.50;;;;;;5095818;28;20110;-77
2023/05/15 02:59:42;;;;;;;12.93;10.68;;;14.90;98.40;;;;;;5113785;28;20038;-77
2023/05/15 03:02:07;;;;;;;8.70;7.80;;;14.90;98.20;;;;;;5095729;28;20058;-77
2023/05/15 03:04:33;;;;;;;12.75;11.10;;;15.10;98.40;;;;;;5096383;28;20046;-77
2023/05/15 03:06:59;;;;;;;12.73;10.07;;;15.30;98.20;;;;;;5113484;28;20408;-77
2023/05/15 03:09:24;;;;;;;14.25;11.07;;;15.50;97.90;;;;;;5115848;28;20464;-77
2023/05/15 03:11:50;;;;;;;13.43;10.80;;;15.50;97.50;;;;;;5099923;28;20055;-77
2023/05/15 03:14:16;;;;;;;14.60;10.55;;;15.50;97.20;;;;;;5117938;28;20043;-78
2023/05/15 03:16:42;;;;;;;14.05;9.25;;;15.60;97.20;;;;;;5118044;28;20069;-77
2023/05/15 03:19:07;;;;;;;18.35;12.43;;;15.60;97.10;;;;;;5118243;28;20482;-77
2023/05/15 03:21:33;;;;;;;17.10;14.10;;;15.60;97.00;;;;;;5116916;28;20762;-77
2023/05/15 03:24:02;;;;;;;16.33;11.65;;;15.50;96.80;;;;;;5099456;28;20081;-77
2023/05/15 03:26:28;;;;;;;18.52;15.07;;;15.40;97.00;;;;;;5100447;28;20031;-77
2023/05/15 03:28:54;;;;;;;18.60;14.18;;;15.40;96.80;;;;;;5116710;28;20042;-77
2023/05/15 03:31:20;;;;;;;18.98;14.18;;;15.30;96.80;;;;;;5118125;28;20055;-77
2023/05/15 03:33:48;;;;;;;18.50;14.80;;;15.20;97.00;;;;;;5099607;28;20027;-77
2023/05/15 03:36:14;;;;;;;20.30;14.65;;;15.00;97.20;;;;;;5117530;28;20093;-77
2023/05/15 03:38:42;;;;;;;23.40;15.80;;;14.90;97.70;;;;;;5117597;28;20035;-77
2023/05/15 03:41:08;;;;;;;20.10;15.13;;;14.80;98.20;;;;;;5117476;28;20042;-77
2023/05/15 03:43:34;;;;;;;18.98;16.15;;;14.80;98.40;;;;;;5117707;28;20039;-77
2023/05/15 03:45:59;;;;;;;17.15;14.48;;;14.90;98.50;;;;;;5116194;28;20137;-77
2023/05/15 03:48:25;;;;;;;18.27;14.45;;;14.90;98.70;;;;;;5117673;28;20433;-77
2023/05/15 03:50:51;;;;;;;16.30;13.85;;;15.00;98.70;;;;;;5117625;28;20035;-77
2023/05/15 03:53:17;;;;;;;19.05;14.27;;;15.00;98.80;;;;;;5116162;28;20065;-77
2023/05/15 03:55:42;;;;;;;18.70;14.60;;;15.00;99.00;;;;;;5116922;28;20036;-78
2023/05/15 03:58:08;;;;;;;21.80;17.90;;;15.00;99.10;;;;;;5117266;28;20092;-77
2023/05/15 04:00:34;;;;;;;26.17;19.70;;;15.00;99.20;;;;;;5115873;28;20027;-77
2023/05/15 04:03:00;;;;;;;23.65;19.45;;;14.90;99.50;;;;;;5082021;28;20028;-77
2023/05/15 04:05:26;;;;;;;22.92;17.65;;;14.80;99.90;;;;;;5098878;28;20039;-76
2023/05/15 04:07:51;;;;;;;20.98;17.15;;;14.80;99.90;;;;;;5082164;28;20070;-76
2023/05/15 04:10:17;;;;;;;23.67;17.33;;;14.90;99.90;;;;;;5098818;28;20044;-77
2023/05/15 04:12:42;;;;;;;23.58;17.50;;;14.90;99.90;;;;;;5116943;28;20042;-77
2023/05/15 04:15:21;;;;;;;21.73;17.70;;;15.10;99.90;;;;;;5116870;28;20071;-77
2023/05/15 04:17:49;;;;;;;23.00;17.90;;;15.10;99.90;;;;;;5117197;28;20023;-77
2023/05/15 04:20:17;;;;;;;23.00;19.30;;;15.20;99.80;;;;;;5116580;28;20028;-77
2023/05/15 04:22:44;;;;;;;20.73;17.05;;;15.10;99.90;;;;;;5116666;28;20372;-76
2023/05/15 04:25:13;;;;;;;21.10;17.00;;;15.10;99.90;;;;;;5117149;28;20405;-76
2023/05/15 04:27:40;;;;;;;18.33;15.50;;;15.10;99.90;;;;;;5116563;28;20031;-76
2023/05/15 04:30:07;;;;;;;22.95;18.40;;;15.20;99.90;;;;;;5097926;28;20051;-76
2023/05/15 04:32:33;;;;;;;21.85;16.73;;;15.30;99.90;;;;;;5081414;28;20031;-77
2023/05/15 04:35:00;;;;;;;26.30;19.30;;;15.30;99.90;;;;;;5116339;28;20036;-77
2023/05/15 04:37:26;;;;;;;18.33;14.05;;;15.20;99.90;;;;;;5116390;28;20031;-77
2023/05/15 04:39:51;;;;;;;25.05;20.00;;;15.20;99.90;;;;;;5116532;28;20557;-77
2023/05/15 04:42:17;;;;;;;16.50;13.32;;;15.30;99.90;;;;;;5116487;28;20106;-77
2023/05/15 04:44:43;;;;;;;18.08;14.38;;;15.20;99.90;;;;;;5116200;28;20042;-76
2023/05/15 04:47:10;;;;;;;22.33;15.75;;;15.30;99.90;;;;;;5115412;28;20032;-77
2023/05/15 04:49:36;;;;;;;24.67;19.67;;;15.30;99.90;;;;;;5116429;28;20062;-77
2023/05/15 04:52:02;;;;;;;22.02;16.55;;;15.30;99.90;;;;;;5115538;28;20028;-77
2023/05/15 04:54:27;;;;;;;27.55;19.48;;;15.30;99.90;;;;;;5116435;28;20355;-76
2023/05/15 04:56:53;;;;;;;27.40;20.83;;;15.30;99.90;;;;;;5098130;28;20035;-76
2023/05/15 04:59:18;;;;;;;25.70;18.55;;;15.20;99.90;;;;;;5115903;28;20031;-77
2023/05/15 05:01:44;;;;;;;19.95;15.48;;;15.10;99.90;;;;;;5115539;28;20096;-77
2023/05/15 05:04:10;;;;;;;24.08;19.52;;;15.10;99.90;;;;;;5115522;28;20027;-76
2023/05/15 05:06:35;;;;;;;22.40;17.42;;;15.10;99.90;;;;;;5114475;28;20064;-77
2023/05/15 05:09:02;;;;;;;19.63;15.57;;;15.00;99.90;;;;;;5097374;28;20084;-76
2023/05/15 05:11:28;;;;;;;18.23;14.63;;;15.00;99.90;;;;;;5115620;28;20047;-77
2023/05/15 05:13:53;;;;;;;19.75;15.65;;;15.20;99.90;;;;;;5115615;28;20043;-77
2023/05/15 05:16:19;;;;;;;23.67;18.00;;;15.20;99.90;;;;;;5115389;28;20525;-76
2023/05/15 05:18:45;;;;;;;23.33;16.45;;;15.20;99.90;;;;;;5115458;28;20036;-77
2023/05/15 05:21:10;;;;;;;23.10;16.48;;;15.10;99.70;;;;;;5115448;28;20383;-77
2023/05/15 05:23:36;;;;;;;16.17;13.82;;;15.10;99.90;;;;;;5115357;28;20053;-77
2023/05/15 05:26:02;;;;;;;23.17;17.38;;;15.10;99.90;;;;;;5097050;28;20206;-77
2023/05/15 05:28:27;;;;;;;21.65;16.10;;;15.00;99.70;;;;;;5097636;28;20039;-77
2023/05/15 05:30:53;;;;;;;17.13;13.45;;;15.00;99.60;;;;;;5080554;28;20048;-76
2023/05/15 05:33:19;;;;;;;20.73;15.70;;;15.00;99.80;;;;;;5096660;28;20059;-76
2023/05/15 05:35:44;;;;;;;12.27;10.13;;;15.10;99.70;;;;;;5115696;28;20075;-77
2023/05/15 05:38:10;;;;;;;19.02;16.15;;;15.20;99.50;;;;;;5115432;28;20082;-76
2023/05/15 05:40:36;;;;;;;25.67;18.25;;;15.20;99.10;;;;;;5114808;28;20027;-76
2023/05/15 05:43:03;;;;;;;23.08;17.55;;;15.20;98.80;;;;;;5115026;28;20024;-76
2023/05/15 05:45:29;;;;;;;18.55;13.75;;;15.10;99.00;;;;;;5115736;28;20040;-76
2023/05/15 05:47:55;;;;;;;21.02;15.30;;;15.00;98.90;;;;;;5096668;28;20097;-77
2023/05/15 05:50:21;;;;;;;21.98;16.33;;;15.10;99.00;;;;;;5114670;28;20098;-77
2023/05/15 05:52:47;;;;;;;22.48;15.68;;;15.20;98.90;;;;;;5096519;28;20031;-79
2023/05/15 05:55:13;;;;;;;22.67;16.45;;;15.20;98.90;;;;;;5114300;28;20040;-77
2023/05/15 05:57:38;;;;;;;16.75;13.52;;;15.20;98.70;;;;;;5115135;28;20102;-77
2023/05/15 06:00:09;;;;;;;18.13;14.23;;;15.20;98.70;;;;;;5079430;28;20039;-77
2023/05/15 06:02:38;;;;;;;15.27;12.18;;;15.20;98.80;;;;;;5096935;28;20486;-77
2023/05/15 06:05:05;;;;;;;20.58;16.15;;;15.30;98.90;;;;;;5114294;28;20031;-78
2023/05/15 06:07:31;;;;;;;19.65;15.13;;;15.40;98.80;;;;;;5114391;28;20023;-78
2023/05/15 06:09:56;;;;;;;17.38;13.45;;;15.40;98.70;;;;;;5114092;28;20042;-78
2023/05/15 06:12:22;;;;;;;21.25;15.25;;;15.40;98.50;;;;;;5113918;28;20034;-78
2023/05/15 06:14:48;;;;;;;19.85;15.20;;;15.50;98.30;;;;;;5096696;28;20036;-78
2023/05/15 06:17:20;;;;;;;17.17;15.02;;;15.50;98.10;;;;;;5114743;28;20032;-78
2023/05/15 06:19:45;;;;;;;20.03;16.23;;;15.50;98.10;;;;;;5095855;28;20035;-79
2023/05/15 06:22:11;;;;;;;21.05;15.88;;;15.50;98.20;;;;;;5113514;28;20269;-79
2023/05/15 06:24:37;;;;;;;19.20;15.43;;;15.50;98.10;;;;;;5114091;28;20039;-78
2023/05/15 06:27:02;;;;;;;16.88;14.55;;;15.50;98.10;;;;;;5114130;28;20031;-78
2023/05/15 06:29:28;;;;;;;15.85;13.00;;;15.50;97.80;;;;;;5113883;28;20104;-80
2023/05/15 06:31:54;;;;;;;16.88;13.20;;;15.60;97.90;;;;;;5096230;28;20387;-79
2023/05/15 06:34:19;;;;;;;17.65;13.57;;;15.70;98.10;;;;;;5112820;28;20024;-78
2023/05/15 06:36:45;;;;;;;11.98;9.07;;;15.80;97.90;;;;;;5114509;28;20036;-78
2023/05/15 06:39:11;;;;;;;15.98;14.25;;;16.00;97.90;;;;;;5096128;28;20030;-80
2023/05/15 06:41:37;;;;;;;17.17;12.82;;;16.10;97.50;;;;;;5114131;28;20063;-79
2023/05/15 06:44:03;;;;;;;14.88;13.27;;;16.20;97.20;;;;;;5096278;28;20376;-80
2023/05/15 06:46:29;;;;;;;14.07;12.45;;;16.30;96.90;;;;;;5113807;28;20028;-81
2023/05/15 06:48:56;;;;;;;13.98;11.18;;;16.40;96.60;;;;;;5114150;28;20515;-80
2023/05/15 06:51:21;;;;;;;15.55;11.93;;;16.40;96.20;;;;;;5096203;28;20038;-81
2023/05/15 06:53:47;;;;;;;19.27;12.82;;;16.40;95.40;;;;;;5113243;28;20364;-79
2023/05/15 06:56:13;;;;;;;14.73;13.18;;;16.40;94.80;;;;;;5112310;28;20039;-82
2023/05/15 06:58:38;;;;;;;13.60;11.55;;;16.30;94.90;;;;;;5095824;28;20028;-79
2023/05/15 07:01:05;;;;;;;12.85;11.32;;;16.20;95.30;;;;;;5095615;28;20047;-80
2023/05/15 07:03:31;;;;;;;13.18;10.95;;;16.30;94.90;;;;;;5095796;28;20076;-79
2023/05/15 07:05:57;;;;;;;17.35;12.25;;;16.30;94.70;;;;;;5114016;28;20059;-80
2023/05/15 07:08:23;;;;;;;13.70;11.80;;;16.40;94.70;;;;;;5113349;28;20434;-78
2023/05/15 07:10:48;;;;;;;16.67;12.23;;;16.30;94.70;;;;;;5113668;28;20020;-80
2023/05/15 07:13:18;;;;;;;17.60;12.73;;;16.30;95.00;;;;;;5114033;28;20031;-79
2023/05/15 07:15:44;;;;;;;17.05;11.80;;;16.40;95.20;;;;;;5113788;28;20080;-79
2023/05/15 07:18:10;;;;;;;19.70;14.43;;;16.40;94.90;;;;;;5113629;28;20110;-80
2023/05/15 07:20:36;;;;;;;16.75;14.18;;;16.40;94.70;;;;;;5094966;28;20070;-78
2023/05/15 07:23:02;;;;;;;14.85;13.30;;;16.40;94.90;;;;;;5095057;28;20109;-78
2023/05/15 07:25:28;;;;;;;15.52;12.48;;;16.40;94.50;;;;;;5113611;28;20176;-79
2023/05/15 07:27:53;;;;;;;17.45;12.40;;;16.60;94.50;;;;;;5113799;28;20061;-79
2023/05/15 07:30:19;;;;;;;15.65;13.43;;;16.70;94.20;;;;;;5113695;28;20134;-79
2023/05/15 07:32:45;;;;;;;17.02;11.38;;;16.70;93.80;;;;;;5113746;28;20043;-77
2023/05/15 07:35:10;;;;;;;14.32;11.60;;;16.70;93.90;;;;;;5094901;28;20040;-79
2023/05/15 07:37:37;;;;;;;14.77;10.77;;;16.80;94.10;;;;;;5113387;28;20028;-79
2023/05/15 07:40:03;;;;;;;18.92;13.75;;;16.90;94.20;;;;;;5113383;28;20099;-79
2023/05/15 07:42:29;;;;;;;15.75;11.82;;;17.20;94.40;;;;;;5113984;28;20031;-79
2023/05/15 07:44:54;;;;;;;21.85;13.95;;;17.30;94.30;;;;;;5095184;28;20043;-79
2023/05/15 07:47:20;;;;;;;17.20;12.85;;;17.30;94.40;;;;;;5113939;28;20035;-79
2023/05/15 07:49:46;;;;;;;15.80;11.73;;;17.30;94.60;;;;;;5113314;28;20509;-78
2023/05/15 07:52:11;;;;;;;15.85;12.05;;;17.30;94.20;;;;;;5113978;28;20036;-78
2023/05/15 07:54:38;;;;;;;14.88;11.95;;;17.40;93.80;;;;;;5095334;28;20491;-80
2023/05/15 07:57:04;;;;;;;13.00;10.60;;;17.30;93.20;;;;;;5117377;28;20113;-79
2023/05/15 07:59:30;;;;;;;10.90;8.80;;;17.30;93.50;;;;;;5117150;28;20043;-76
2023/05/15 08:01:55;;;;;;;11.80;8.32;;;17.40;93.20;;;;;;5116742;28;20024;-79
2023/05/15 08:04:21;;;;;;;16.33;9.98;;;17.70;93.00;;;;;;5116613;28;20036;-79
2023/05/15 08:06:46;;;;;;;13.73;10.13;;;17.90;92.30;;;;;;5115935;28;20028;-80
2023/05/15 08:09:12;;;;;;;11.60;9.73;;;18.00;92.20;;;;;;5099027;28;20047;-79
2023/05/15 08:11:38;;;;;;;13.80;11.10;;;18.10;92.10;;;;;;5081696;28;20096;-80
2023/05/15 08:14:03;;;;;;;13.57;10.57;;;18.30;91.70;;;;;;5098463;28;20038;-80
2023/05/15 08:16:29;;;;;;;14.77;9.75;;;18.30;92.00;;;;;;5116882;28;20039;-78
2023/05/15 08:19:00;;;;;;;9.43;7.30;;;18.30;91.10;;;;;;5116710;28;20031;-78
2023/05/15 08:21:29;;;;;;;11.02;7.68;;;18.30;90.70;;;;;;5117078;28;20158;-79
2023/05/15 08:23:55;;;;;;;10.60;8.77;;;18.40;90.30;;;;;;5116590;28;20027;-79
2023/05/15 08:26:21;;;;;;;8.88;7.70;;;18.50;88.80;;;;;;5116272;28;20031;-78
2023/05/15 08:28:47;;;;;;;8.75;6.93;;;18.60;87.60;;;;;;5116490;28;20051;-77
2023/05/15 08:31:12;;;;;;;9.00;6.20;;;18.70;87.80;;;;;;5116458;28;20055;-77
2023/05/15 08:33:38;;;;;;;8.82;6.65;;;18.90;87.70;;;;;;5098869;28;20036;-79
2023/05/15 08:36:04;;;;;;;12.60;7.50;;;18.90;86.60;;;;;;5116697;28;20435;-78
2023/05/15 08:38:30;;;;;;;10.63;6.43;;;18.90;84.30;;;;;;5116290;28;20023;-78
2023/05/15 08:41:01;;;;;;;9.20;7.07;;;18.90;84.10;;;;;;5116076;28;20051;-79
2023/05/15 08:43:30;;;;;;;10.85;7.30;;;18.90;84.10;;;;;;5115095;28;20456;-78
2023/05/15 08:45:57;;;;;;;9.48;6.47;;;18.90;84.30;;;;;;5116088;28;20383;-78
2023/05/15 08:48:25;;;;;;;8.85;6.40;;;19.00;84.60;;;;;;5115759;28;20081;-78
2023/05/15 08:50:51;;;;;;;12.52;9.50;;;19.10;85.90;;;;;;5116096;28;20023;-78
2023/05/15 08:53:17;;;;;;;15.00;11.65;;;19.20;84.90;;;;;;5115959;28;20080;-77
2023/05/15 08:55:44;;;;;;;13.98;11.18;;;19.30;86.50;;;;;;5115087;28;20028;-78
2023/05/15 08:58:10;;;;;;;15.93;12.13;;;19.40;86.80;;;;;;5115779;28;20077;-80
2023/05/15 09:00:36;;;;;;;14.00;12.30;;;19.40;87.30;;;;;;5097554;28;20118;-80
2023/05/15 09:03:02;;;;;;;19.52;13.93;;;19.40;88.30;;;;;;5115528;28;20115;-75
2023/05/15 09:05:28;;;;;;;14.55;12.35;;;19.40;87.60;;;;;;5115860;28;20501;-79
2023/05/15 09:07:55;;;;;;;14.80;12.05;;;19.50;88.60;;;;;;5115504;28;20087;-79
2023/05/15 09:10:22;;;;;;;18.05;12.55;;;19.50;89.10;;;;;;5115960;28;20528;-79
2023/05/15 09:12:50;;;;;;;14.70;12.75;;;19.50;88.50;;;;;;5115698;28;20091;-79
2023/05/15 09:15:20;;;;;;;15.80;13.40;;;19.50;88.90;;;;;;5115278;28;20494;-78
2023/05/15 09:17:47;;;;;;;9.63;7.63;;;19.70;89.20;;;;;;5115452;28;20070;-80
2023/05/15 09:20:32;;;;;;;13.05;8.15;;;19.70;85.40;;;;;;5115906;28;20022;-78
2023/05/15 09:23:00;;;;;;;13.18;8.52;;;19.80;85.00;;;;;;5115375;28;20087;-80
2023/05/15 09:25:40;;;;;;;11.32;7.00;;;20.00;85.80;;;;;;5115386;28;20472;-80
2023/05/15 09:28:23;;;;;;;7.32;5.82;;;20.20;84.50;;;;;;5115632;28;20062;-78
2023/05/15 09:30:48;;;;;;;;;;;20.30;81.60;;;;;;5115656;28;20051;-80
2023/05/15 09:33:16;;;;;;;11.02;6.68;;;20.30;80.20;;;;;;5115872;28;19908;-77
2023/05/15 09:35:41;;;;;;;9.23;6.43;;;20.40;79.60;;;;;;5115660;28;20032;-77
2023/05/15 09:38:13;;;;;;;7.85;5.57;;;20.40;79.70;;;;;;5115173;28;20188;-79
2023/05/15 09:40:42;;;;;;;7.47;6.60;;;20.40;78.20;;;;;;5097270;28;20124;-79
2023/05/15 09:43:10;;;;;;;9.40;7.50;;;20.20;77.70;;;;;;5115351;28;20380;-78
2023/05/15 09:45:36;;;;;;;10.93;8.65;;;20.20;79.00;;;;;;5113678;28;20490;-80
2023/05/15 09:48:06;;;;;;;8.75;7.90;;;20.10;78.70;;;;;;5114586;28;20112;-79
2023/05/15 09:50:38;;;;;;;11.00;7.75;;;20.00;78.90;;;;;;5114783;28;20050;-78
2023/05/15 09:53:04;;;;;;;11.52;7.50;;;19.90;79.50;;;;;;5114743;28;20023;-78
2023/05/15 09:55:35;;;;;;;9.88;7.43;;;19.90;80.20;;;;;;5114719;28;20047;-78
2023/05/15 09:58:10;;;;;;;8.65;7.82;;;19.80;80.10;;;;;;5115218;28;20028;-78
2023/05/15 10:00:38;;;;;;;8.05;7.25;;;19.80;79.10;;;;;;5115412;28;20023;-77
2023/05/15 10:03:05;;;;;;;10.93;8.45;;;19.80;78.90;;;;;;5114761;28;20042;-78
2023/05/15 10:05:31;;;;;;;11.02;9.35;;;19.70;77.60;;;;;;5115017;28;20028;-78
2023/05/15 10:07:58;;;;;;;11.73;7.93;;;19.60;78.40;;;;;;5114696;28;20073;-78
2023/05/15 10:10:25;;;;;;;9.50;8.60;;;19.50;78.10;;;;;;5114503;28;20032;-77
2023/05/15 10:12:51;;;;;;;9.25;7.57;;;19.50;77.90;;;;;;5114207;28;20095;-78
2023/05/15 10:15:18;;;;;;;9.40;7.82;;;19.40;78.10;;;;;;5114530;28;20035;-78
2023/05/15 10:17:47;;;;;;;9.45;8.18;;;19.40;78.80;;;;;;5114081;28;20031;-76
2023/05/15 10:20:15;;;;;;;12.45;7.63;;;19.40;78.70;;;;;;5114965;28;20028;-76
2023/05/15 10:22:45;;;;;;;11.40;8.48;;;19.50;78.10;;;;;;5114819;28;20040;-76
2023/05/15 10:25:35;;;;;;;9.82;7.68;;;19.50;77.50;;;;;;5096895;28;20402;-76
2023/05/15 10:28:02;;;;;;;10.23;7.85;;;19.50;75.20;;;;;;5114322;28;20103;-76
2023/05/15 10:30:28;;;;;;;12.80;9.90;;;19.40;74.80;;;;;;5096226;28;20460;-75
2023/05/15 10:32:55;;;;;;;10.90;9.80;;;19.30;76.50;;;;;;5114148;28;20188;-76
2023/05/15 10:35:21;;;;;;;13.52;10.82;;;19.30;76.80;;;;;;5114027;28;20460;-76
2023/05/15 10:37:48;;;;;;;12.02;10.82;;;19.40;77.40;;;;;;5114576;28;20027;-75
2023/05/15 10:40:16;;;;;;;13.88;11.40;;;19.30;78.60;;;;;;5114142;28;20060;-76
2023/05/15 10:42:43;;;;;;;14.55;10.95;;;19.30;78.60;;;;;;5113964;28;20028;-75
2023/05/15 10:45:09;;;;;;;12.30;10.52;;;19.30;78.20;;;;;;5114029;28;20032;-75
2023/05/15 10:47:36;;;;;;;10.75;9.23;;;19.20;77.90;;;;;;5114071;28;20073;-76
2023/05/15 10:50:04;;;;;;;9.90;7.72;;;19.10;77.20;;;;;;5096157;28;20024;-75
2023/05/15 10:52:35;;;;;;;6.70;5.97;;;19.10;75.60;;;;;;5114279;28;20027;-75
2023/05/15 10:55:03;;;;;;;6.20;5.15;;;19.00;73.50;;;;;;5114154;28;20038;-75
2023/05/15 10:57:29;;;;;;;8.63;6.25;;;18.90;73.40;;;;;;5113936;28;20067;-76
2023/05/15 10:59:55;;;;;;;7.90;6.18;;;19.00;73.90;;;;;;5114397;28;20107;-75
2023/05/15 11:02:29;;;;;;;7.85;7.05;;;19.00;74.40;;;;;;5113633;28;20031;-75
2023/05/15 11:04:59;;;;;;;6.18;5.53;;;19.00;74.70;;;;;;5096316;28;20114;-76
2023/05/15 11:07:26;;;;;;;9.98;6.93;;;19.00;74.40;;;;;;5114034;28;20027;-76
2023/05/15 11:09:53;;;;;;;11.13;7.88;;;19.00;73.30;;;;;;5113719;28;20038;-76
2023/05/15 11:12:19;;;;;;;9.55;7.80;;;18.90;75.10;;;;;;5113905;28;20016;-76
2023/05/15 11:15:08;;;;;;;7.80;6.78;;;18.90;76.50;;;;;;5113691;28;20024;-76
2023/05/15 11:17:34;;;;;;;8.90;6.88;;;18.90;77.60;;;;;;5080040;28;20408;-76
2023/05/15 11:19:59;;;;;;;8.95;7.35;;;18.90;78.50;;;;;;5113769;28;20057;-76
2023/05/15 11:22:29;;;;;;;11.63;8.45;;;19.00;79.10;;;;;;5113692;28;20023;-76
2023/05/15 11:24:57;;;;;;;9.63;8.52;;;19.00;79.30;;;;;;5113703;28;20031;-76
2023/05/15 11:27:25;;;;;;;11.65;9.32;;;19.00;79.80;;;;;;5114079;28;20020;-76
2023/05/15 11:30:09;;;;;;;10.80;9.13;;;18.90;80.60;;;;;;5114147;28;20028;-77
2023/05/15 11:32:50;;;;;;;9.13;7.85;;;18.80;81.40;;;;;;5116487;28;20395;-76
2023/05/15 11:35:33;;;;;;;10.45;8.82;;;18.80;82.40;;;;;;5117785;28;20038;-76
2023/05/15 11:38:04;;;;;;;10.35;8.85;;;18.90;82.90;;;;;;5117540;28;20023;-76
2023/05/15 11:40:46;;;;;;;11.25;7.80;;;18.90;82.80;;;;;;5117291;28;20051;-75
2023/05/15 11:43:12;;;;;;;;;;;18.90;83.20;;;;;;5118010;28;20499;-76
2023/05/15 11:45:39;;;;;;;12.18;8.82;;;19.00;83.00;;;;;;5117143;28;19946;-76
2023/05/15 11:48:07;;;;;;;9.18;8.02;;;19.00;82.10;;;;;;5117673;28;20028;-75
2023/05/15 11:50:34;;;;;;;11.98;9.23;;;19.10;82.00;;;;;;5117254;28;20098;-79
2023/05/15 11:53:07;;;;;;;12.30;10.30;;;18.90;81.30;;;;;;5117244;28;20564;-75
2023/05/15 11:55:35;;;;;;;12.57;10.98;;;18.90;82.20;;;;;;5117122;28;20027;-76
2023/05/15 11:58:01;;;;;;;16.48;11.63;;;18.90;83.10;;;;;;5117175;28;20452;-76
2023/05/15 12:00:27;;;;;;;13.63;12.02;;;18.90;83.60;;;;;;5116102;28;20442;-76
2023/05/15 12:02:53;;;;;;;12.25;10.95;;;18.80;83.60;;;;;;5117062;28;20106;-77
2023/05/15 12:05:18;;;;;;;15.80;13.98;;;18.80;84.40;;;;;;5099101;28;20067;-77
2023/05/15 12:07:45;;;;;;;13.57;11.60;;;18.70;85.70;;;;;;5081838;28;20035;-76
2023/05/15 12:10:12;;;;;;;18.75;15.05;;;18.70;86.00;;;;;;5098657;28;20028;-76
2023/05/15 12:12:42;;;;;;;17.90;15.30;;;18.70;87.00;;;;;;5117147;28;20034;-77
2023/05/15 12:15:09;;;;;;;23.02;17.55;;;18.80;87.30;;;;;;5117098;28;20039;-76
2023/05/15 12:17:44;;;;;;;19.75;15.52;;;18.80;86.80;;;;;;5098495;28;20092;-76
2023/05/15 12:20:15;;;;;;;18.73;16.27;;;18.80;87.00;;;;;;5117128;28;20023;-76
2023/05/15 12:22:41;;;;;;;21.60;16.88;;;18.80;87.30;;;;;;5116976;28;20565;-77
2023/05/15 12:25:07;;;;;;;25.80;16.92;;;18.80;87.10;;;;;;5098507;28;20043;-76
2023/05/15 12:27:34;;;;;;;21.63;18.25;;;18.80;86.70;;;;;;5116590;28;20107;-77
2023/05/15 12:30:01;;;;;;;22.98;18.48;;;18.80;86.80;;;;;;5116543;28;20035;-76
2023/05/15 12:32:29;;;;;;;20.40;15.73;;;18.80;87.60;;;;;;5116886;28;20059;-76
2023/05/15 12:34:55;;;;;;;23.55;17.05;;;18.70;88.30;;;;;;5116655;28;20035;-76
2023/05/15 12:37:21;;;;;;;20.70;15.70;;;18.80;89.00;;;;;;5115906;28;20034;-77